Time;durP1;ratioP1;P1;durP2;ratioP2;P2;SDS_P1;SDS_P2;PMS_P1;PMS_P2;Temp;Humidity;BMP_temperature;BMP_pressure;BME280_temperature;BME280_humidity;BME280_pressure;Samples;Min_cycle;Max_cycle;Signal;HPM_P1;HPM_P2
2021/07/22 00:01:44;;;;;;;;;24.25;19.50;;;;;24.75;43.77;101779.81;5043440;28;45317;-67
2021/07/22 00:04:09;;;;;;;;;24.50;19.50;;;;;24.73;44.13;101779.09;5052383;28;45434;-67
2021/07/22 00:06:35;;;;;;;;;20.50;19.25;;;;;24.70;44.43;101773.13;5061927;28;45439;-67
2021/07/22 00:09:00;;;;;;;;;23.00;21.00;;;;;24.67;44.70;101784.00;5060898;28;45461;-67
2021/07/22 00:11:25;;;;;;;;;26.00;19.00;;;;;24.62;43.94;101772.81;5057987;28;45264;-67
2021/07/22 00:13:51;;;;;;;;;19.75;19.50;;;;;24.58;44.47;101780.16;5051859;28;45234;-67
2021/07/22 00:16:17;;;;;;;;;19.50;18.50;;;;;24.56;44.22;101774.09;5043782;28;45313;-67
2021/07/22 00:18:42;;;;;;;;;20.75;18.00;;;;;24.53;44.42;101780.47;5061735;28;45328;-67
2021/07/22 00:21:08;;;;;;;;;20.75;17.75;;;;;24.47;44.43;101772.09;5061828;28;45323;-67
2021/07/22 00:23:33;;;;;;;;;24.75;21.50;;;;;24.42;44.81;101774.19;5061963;28;45321;-67
2021/07/22 00:26:03;;;;;;;;;23.75;17.00;;;;;24.40;44.71;101782.28;5061254;28;45485;-67
2021/07/22 00:28:28;;;;;;;;;23.75;20.50;;;;;24.36;44.99;101783.44;5061070;28;45240;-64
2021/07/22 00:30:54;;;;;;;;;23.25;22.50;;;;;24.32;45.00;101786.44;5061132;28;47020;-64
2021/07/22 00:33:19;;;;;;;;;26.75;23.00;;;;;24.30;45.03;101791.00;5061519;28;46459;-64
2021/07/22 00:35:44;;;;;;;;;25.50;22.25;;;;;24.27;45.33;101792.03;5058311;28;45418;-64
2021/07/22 00:38:10;;;;;;;;;25.75;23.50;;;;;24.23;44.92;101790.53;5061929;28;45391;-64
2021/07/22 00:40:35;;;;;;;;;26.00;21.50;;;;;24.18;45.16;101780.22;5061279;28;45341;-66
2021/07/22 00:43:02;;;;;;;;;26.25;24.25;;;;;24.13;45.23;101778.84;5058781;28;46202;-63
2021/07/22 00:45:29;;;;;;;;;25.25;22.75;;;;;24.08;45.36;101784.47;5059629;28;45402;-64
2021/07/22 00:47:56;;;;;;;;;25.25;22.50;;;;;24.06;45.82;101790.84;5061484;28;45222;-65
2021/07/22 00:50:22;;;;;;;;;23.75;21.00;;;;;24.01;45.96;101785.81;5060639;28;45414;-65
2021/07/22 00:52:47;;;;;;;;;26.75;24.25;;;;;24.00;46.14;101783.25;5061526;28;46303;-65
2021/07/22 00:55:14;;;;;;;;;27.50;23.00;;;;;23.97;46.56;101786.97;5061101;28;45318;-65
2021/07/22 00:57:39;;;;;;;;;24.50;22.00;;;;;23.93;46.09;101781.03;5061530;28;45351;-65
2021/07/22 01:00:06;;;;;;;;;20.50;19.00;;;;;23.92;46.16;101781.13;5056001;28;45353;-64
2021/07/22 01:02:31;;;;;;;;;21.75;20.50;;;;;23.85;46.25;101774.53;5040580;28;45589;-64
2021/07/22 01:04:56;;;;;;;;;26.50;22.50;;;;;23.82;46.15;101774.72;5057748;28;45678;-63
2021/07/22 01:07:22;;;;;;;;;23.00;20.50;;;;;23.79;46.38;101775.78;5061508;28;45432;-63
2021/07/22 01:09:49;;;;;;;;;29.00;22.25;;;;;23.76;46.70;101783.94;5060814;28;45162;-63
2021/07/22 01:12:14;;;;;;;;;21.75;21.00;;;;;23.73;46.72;101785.97;5061342;28;46365;-66
2021/07/22 01:14:43;;;;;;;;;24.00;19.75;;;;;23.69;46.95;101780.00;5060836;28;45190;-66
2021/07/22 01:17:18;;;;;;;;;27.00;22.50;;;;;23.64;46.50;101780.31;5061308;28;45319;-66
2021/07/22 01:19:44;;;;;;;;;26.75;22.00;;;;;23.63;46.99;101786.59;5060581;28;45300;-66
2021/07/22 01:22:09;;;;;;;;;22.25;20.25;;;;;23.58;46.77;101785.16;5061303;28;46288;-65
2021/07/22 01:24:34;;;;;;;;;17.75;16.50;;;;;23.60;47.07;101788.56;5060689;28;45249;-66
2021/07/22 01:26:59;;;;;;;;;22.00;18.50;;;;;23.61;46.94;101780.50;5061153;28;45343;-66
2021/07/22 01:29:25;;;;;;;;;21.25;19.00;;;;;23.59;47.16;101781.56;5060512;28;45605;-66
2021/07/22 01:31:50;;;;;;;;;22.75;20.75;;;;;23.57;47.31;101780.81;5061016;28;45962;-65
2021/07/22 01:34:15;;;;;;;;;24.75;20.25;;;;;23.57;47.53;101789.63;5059998;28;45299;-66
2021/07/22 01:36:41;;;;;;;;;25.00;21.50;;;;;23.54;47.14;101787.13;5054483;28;45345;-66
2021/07/22 01:39:06;;;;;;;;;19.25;19.00;;;;;23.53;47.19;101779.28;5041055;28;45615;-66
2021/07/22 01:41:33;;;;;;;;;23.00;20.25;;;;;23.53;47.34;101782.78;5050464;28;45408;-66
2021/07/22 01:43:58;;;;;;;;;20.00;18.75;;;;;23.46;47.57;101770.88;5051055;28;45232;-68
2021/07/22 01:46:24;;;;;;;;;21.75;19.75;;;;;23.48;47.38;101781.38;5025319;28;45394;-68
2021/07/22 01:48:50;;;;;;;;;19.00;17.25;;;;;23.45;47.77;101784.25;5045038;28;45424;-68
2021/07/22 01:51:15;;;;;;;;;23.00;18.75;;;;;23.42;47.89;101776.44;5052446;28;46102;-68
2021/07/22 01:53:40;;;;;;;;;20.50;18.75;;;;;23.41;47.89;101788.03;5052332;28;45332;-68
2021/07/22 01:56:06;;;;;;;;;24.25;17.25;;;;;23.37;47.59;101785.56;5053173;28;45272;-69
2021/07/22 01:58:31;;;;;;;;;21.25;20.50;;;;;23.35;48.09;101792.78;5047747;28;45328;-68
2021/07/22 02:00:56;;;;;;;;;23.50;18.00;;;;;23.31;47.70;101783.31;5051441;28;46116;-68
2021/07/22 02:03:22;;;;;;;;;24.00;20.25;;;;;23.29;48.20;101785.22;5050225;28;45348;-69
2021/07/22 02:05:47;;;;;;;;;20.75;19.50;;;;;23.25;47.82;101785.53;5043428;28;45303;-68
2021/07/22 02:08:12;;;;;;;;;25.75;24.00;;;;;23.22;48.12;101775.09;5057266;28;45458;-68
2021/07/22 02:10:38;;;;;;;;;28.25;24.50;;;;;23.20;47.92;101780.50;5060090;28;49306;-68
2021/07/22 02:13:03;;;;;;;;;24.50;23.50;;;;;23.18;48.14;101777.09;5059675;28;45312;-68
2021/07/22 02:15:28;;;;;;;;;24.75;22.00;;;;;23.16;48.22;101764.88;5060693;28;45312;-70
2021/07/22 02:17:54;;;;;;;;;23.25;20.00;;;;;23.14;48.13;101767.63;5059920;28;45322;-68
2021/07/22 02:20:19;;;;;;;;;25.25;21.75;;;;;23.13;48.29;101775.69;5059878;28;47800;-67
2021/07/22 02:22:44;;;;;;;;;22.25;21.75;;;;;23.11;48.32;101781.09;5059802;28;45328;-67
2021/07/22 02:25:10;;;;;;;;;26.00;23.00;;;;;23.04;48.66;101778.00;5060514;28;45281;-67
2021/07/22 02:27:35;;;;;;;;;22.50;20.50;;;;;23.01;48.63;101780.81;5059575;28;46316;-67
2021/07/22 02:30:04;;;;;;;;;23.50;21.75;;;;;22.99;48.93;101776.56;5059935;28;46259;-67
2021/07/22 02:32:30;;;;;;;;;24.25;21.75;;;;;22.96;48.45;101774.94;5059913;28;45161;-67
2021/07/22 02:34:55;;;;;;;;;33.50;27.75;;;;;22.96;48.84;101774.09;5059060;28;45461;-66
2021/07/22 02:37:21;;;;;;;;;27.75;25.00;;;;;22.94;48.88;101771.53;5056770;28;45465;-67
2021/07/22 02:39:46;;;;;;;;;19.25;15.00;;;;;22.92;48.82;101778.75;5059930;28;45314;-67
2021/07/22 02:42:12;;;;;;;;;29.00;26.25;;;;;22.86;49.06;101779.16;5058181;28;45387;-67
2021/07/22 02:44:39;;;;;;;;;25.75;25.50;;;;;22.86;49.07;101783.59;5049751;28;45477;-67
2021/07/22 02:47:09;;;;;;;;;26.50;23.25;;;;;22.82;49.22;101772.31;5043573;28;45451;-68
2021/07/22 02:49:34;;;;;;;;;23.25;21.50;;;;;22.79;49.35;101772.47;5041704;28;46193;-68
2021/07/22 02:51:59;;;;;;;;;33.50;28.75;;;;;22.78;48.92;101782.22;5058326;28;45221;-68
2021/07/22 02:54:24;;;;;;;;;27.25;22.75;;;;;22.76;49.21;101778.81;5047442;28;45486;-68
2021/07/22 02:56:50;;;;;;;;;31.50;26.00;;;;;22.74;48.88;101780.72;5050034;28;45425;-68
2021/07/22 02:59:15;;;;;;;;;25.75;22.75;;;;;22.73;49.69;101779.00;5047610;28;46211;-68
2021/07/22 03:01:41;;;;;;;;;26.25;23.50;;;;;22.70;49.82;101773.91;5046909;28;45470;-68
2021/07/22 03:04:06;;;;;;;;;29.50;23.00;;;;;22.69;49.74;101777.50;5049751;28;45366;-68
2021/07/22 03:06:31;;;;;;;;;26.50;25.00;;;;;22.68;49.70;101773.16;5050684;28;45331;-69
2021/07/22 03:08:57;;;;;;;;;25.50;20.00;;;;;22.66;49.58;101780.34;5051767;28;45423;-68
2021/07/22 03:11:22;;;;;;;;;23.25;20.25;;;;;22.61;50.07;101773.59;5049449;28;45347;-68
2021/07/22 03:13:47;;;;;;;;;26.75;24.50;;;;;22.60;49.83;101783.34;5049147;28;45446;-68
2021/07/22 03:16:13;;;;;;;;;27.00;22.00;;;;;22.57;49.96;101786.19;5049533;28;45498;-66
2021/07/22 03:18:38;;;;;;;;;24.00;21.25;;;;;22.57;50.26;101788.00;5047585;28;45336;-66
2021/07/22 03:21:05;;;;;;;;;28.50;23.25;;;;;22.55;50.22;101785.44;5051034;28;45335;-67
2021/07/22 03:23:30;;;;;;;;;26.25;22.75;;;;;22.54;50.09;101782.88;5048256;28;45353;-67
2021/07/22 03:25:56;;;;;;;;;26.25;24.00;;;;;22.51;50.29;101778.63;5054134;28;45357;-67
2021/07/22 03:28:21;;;;;;;;;36.25;29.00;;;;;22.48;50.46;101784.13;5054359;28;45751;-67
2021/07/22 03:30:47;;;;;;;;;27.00;23.50;;;;;22.48;50.03;101783.28;5053351;28;45361;-67
2021/07/22 03:33:13;;;;;;;;;21.50;20.75;;;;;22.45;50.24;101781.66;5052404;28;45316;-67
2021/07/22 03:35:38;;;;;;;;;29.00;25.50;;;;;22.43;50.45;101781.75;5052786;28;45316;-68
2021/07/22 03:38:04;;;;;;;;;28.00;22.75;;;;;22.40;50.43;101770.47;5053103;28;46287;-67
2021/07/22 03:40:29;;;;;;;;;24.00;22.50;;;;;22.37;50.42;101779.44;5032636;28;45353;-67
2021/07/22 03:42:54;;;;;;;;;28.75;22.00;;;;;22.37;50.76;101781.25;5052355;28;45322;-67
2021/07/22 03:45:20;;;;;;;;;26.75;23.50;;;;;22.37;50.58;101775.94;5053460;28;47061;-68
2021/07/22 03:47:45;;;;;;;;;21.50;20.00;;;;;22.34;50.61;101782.28;5052881;28;46258;-67
2021/07/22 03:50:10;;;;;;;;;27.25;22.00;;;;;22.35;50.37;101780.50;5049783;28;45246;-67
2021/07/22 03:52:36;;;;;;;;;29.25;22.00;;;;;22.33;50.71;101783.25;5052493;28;45357;-68
2021/07/22 03:55:02;;;;;;;;;25.00;22.50;;;;;22.30;50.70;101786.06;5053557;28;45380;-67
2021/07/22 03:57:28;;;;;;;;;24.25;21.50;;;;;22.30;50.69;101777.28;5052469;28;46293;-68
2021/07/22 03:59:53;;;;;;;;;27.75;24.25;;;;;22.25;50.81;101777.56;5049211;28;45352;-69
2021/07/22 04:02:18;;;;;;;;;26.00;23.00;;;;;22.24;51.07;101783.81;5049827;28;45412;-69
2021/07/22 04:04:44;;;;;;;;;28.00;22.25;;;;;22.22;51.10;101782.16;5051719;28;48048;-67
2021/07/22 04:07:09;;;;;;;;;23.00;22.00;;;;;22.20;50.99;101778.75;5052894;28;46302;-67
2021/07/22 04:09:34;;;;;;;;;23.75;21.25;;;;;22.19;51.14;101779.69;5051511;28;45317;-67
2021/07/22 04:12:00;;;;;;;;;23.00;20.75;;;;;22.18;51.01;101784.16;5062304;28;45368;-67
2021/07/22 04:14:25;;;;;;;;;30.50;23.50;;;;;22.15;51.06;101777.25;5061386;28;45539;-68
2021/07/22 04:16:51;;;;;;;;;28.25;24.50;;;;;22.15;51.14;101782.53;5062175;28;46387;-68
2021/07/22 04:19:16;;;;;;;;;25.75;21.25;;;;;22.14;51.46;101778.19;5055821;28;45219;-70
2021/07/22 04:21:41;;;;;;;;;30.25;21.50;;;;;22.12;51.59;101781.88;5061308;28;45261;-70
2021/07/22 04:24:06;;;;;;;;;24.25;21.25;;;;;22.08;51.46;101783.84;5061566;28;45196;-70
2021/07/22 04:26:32;;;;;;;;;24.25;21.00;;;;;22.05;51.36;101778.75;5061815;28;45248;-72
2021/07/22 04:28:57;;;;;;;;;29.25;25.50;;;;;22.07;51.41;101784.81;5061338;28;45184;-71
2021/07/22 04:31:23;;;;;;;;;25.75;23.00;;;;;22.06;51.24;101788.38;5062117;28;45452;-70
2021/07/22 04:33:48;;;;;;;;;24.25;20.50;;;;;22.06;51.68;101788.38;5060878;28;45553;-70
2021/07/22 04:36:14;;;;;;;;;26.00;25.00;;;;;22.04;51.63;101789.41;5057252;28;46446;-67
2021/07/22 04:38:40;;;;;;;;;27.50;24.00;;;;;22.01;51.34;101789.56;5061413;28;45844;-67
2021/07/22 04:41:06;;;;;;;;;30.75;22.00;;;;;21.99;51.30;101789.63;5061918;28;45271;-67
2021/07/22 04:43:32;;;;;;;;;26.50;22.00;;;;;21.97;51.67;101799.47;5061082;28;45399;-68
2021/07/22 04:46:01;;;;;;;;;23.75;18.25;;;;;21.98;51.38;101795.03;5061722;28;46702;-66
2021/07/22 04:48:27;;;;;;;;;21.00;19.75;;;;;22.02;51.39;101799.19;5060876;28;45244;-65
2021/07/22 04:50:52;;;;;;;;;31.50;26.00;;;;;22.02;51.22;101807.13;5061705;28;45231;-68
2021/07/22 04:53:17;;;;;;;;;21.00;20.50;;;;;22.02;51.35;101801.84;5061005;28;45458;-68
2021/07/22 04:55:43;;;;;;;;;26.50;21.75;;;;;22.00;52.02;101801.09;5056448;28;46069;-67
2021/07/22 04:58:08;;;;;;;;;21.00;21.00;;;;;22.00;51.38;101801.09;5057032;28;45200;-68
2021/07/22 05:00:33;;;;;;;;;25.00;22.00;;;;;22.00;51.33;101801.09;5048746;28;45880;-68
2021/07/22 05:02:59;;;;;;;;;21.50;19.25;;;;;22.02;51.30;101813.28;5045741;28;45520;-72
2021/07/22 05:05:26;;;;;;;;;21.75;20.50;;;;;22.03;51.60;101811.53;5049225;28;46114;-68
2021/07/22 05:07:51;;;;;;;;;28.00;22.75;;;;;22.02;51.31;101802.69;5047550;28;45929;-68
2021/07/22 05:10:17;;;;;;;;;30.00;24.75;;;;;22.06;51.46;101809.56;5049741;28;45383;-67
2021/07/22 05:12:42;;;;;;;;;31.50;25.25;;;;;22.07;51.59;101810.44;5048451;28;45513;-67
2021/07/22 05:15:08;;;;;;;;;26.00;20.50;;;;;22.08;51.35;101814.78;5049145;28;46050;-67
2021/07/22 05:17:36;;;;;;;;;26.00;23.25;;;;;22.08;51.47;101810.34;5048010;28;45300;-68
2021/07/22 05:20:01;;;;;;;;;26.75;23.75;;;;;22.08;51.39;101812.97;5050704;28;45336;-69
2021/07/22 05:22:26;;;;;;;;;24.75;20.75;;;;;22.10;51.82;101811.09;5050794;28;45254;-68
2021/07/22 05:24:52;;;;;;;;;24.00;23.00;;;;;22.13;51.43;101815.34;5050692;28;45282;-68
2021/07/22 05:27:19;;;;;;;;;25.75;21.50;;;;;22.12;51.81;101811.84;5050413;28;45420;-69
2021/07/22 05:29:44;;;;;;;;;24.75;19.50;;;;;22.07;51.99;101816.56;5050783;28;45175;-69
2021/07/22 05:32:12;;;;;;;;;27.50;25.75;;;;;22.10;51.62;101819.03;5048921;28;45459;-69
2021/07/22 05:34:38;;;;;;;;;27.00;23.75;;;;;22.13;51.64;101813.56;5050398;28;46481;-69
2021/07/22 05:37:04;;;;;;;;;27.25;22.75;;;;;22.24;51.52;101814.72;5050198;28;45450;-69
2021/07/22 05:39:30;;;;;;;;;27.75;24.50;;;;;22.28;50.87;101813.59;5047852;28;45482;-69
2021/07/22 05:41:55;;;;;;;;;28.50;24.50;;;;;22.34;50.78;101813.22;5048972;28;45308;-66
2021/07/22 05:44:21;;;;;;;;;27.00;23.50;;;;;22.37;50.87;101818.34;5047655;28;46142;-67
2021/07/22 05:46:46;;;;;;;;;26.00;20.50;;;;;22.40;50.88;101812.84;5050158;28;45299;-67
2021/07/22 05:49:12;;;;;;;;;26.50;25.25;;;;;22.41;51.02;101818.06;5050461;28;45584;-67
2021/07/22 05:51:37;;;;;;;;;25.75;22.50;;;;;22.46;50.83;101815.16;5048926;28;45288;-67
2021/07/22 05:54:02;;;;;;;;;26.75;21.75;;;;;22.50;50.56;101816.66;5049749;28;46412;-69
2021/07/22 05:56:28;;;;;;;;;26.25;22.25;;;;;22.53;50.39;101813.81;5050052;28;45213;-68
2021/07/22 05:58:54;;;;;;;;;23.75;21.25;;;;;22.56;50.41;101815.44;5050575;28;45664;-68
2021/07/22 06:01:20;;;;;;;;;25.50;24.75;;;;;22.61;50.28;101814.19;5047762;28;45442;-68
2021/07/22 06:03:45;;;;;;;;;26.50;24.75;;;;;22.66;49.93;101813.94;5049391;28;45220;-67
2021/07/22 06:06:10;;;;;;;;;23.75;21.50;;;;;22.70;49.88;101818.94;5049857;28;45230;-67
2021/07/22 06:08:36;;;;;;;;;24.50;20.75;;;;;22.75;49.68;101818.66;5050570;28;45382;-70
2021/07/22 06:11:06;;;;;;;;;26.75;23.25;;;;;22.78;49.79;101814.03;5049961;28;45439;-68
2021/07/22 06:13:32;;;;;;;;;23.50;22.75;;;;;22.86;49.53;101820.69;5048882;28;46856;-67
2021/07/22 06:15:57;;;;;;;;;29.25;24.75;;;;;22.90;49.31;101824.84;5049800;28;45385;-67
2021/07/22 06:18:22;;;;;;;;;28.75;24.00;;;;;22.89;49.34;101813.41;5047696;28;45538;-68
2021/07/22 06:20:48;;;;;;;;;23.00;19.00;;;;;22.95;48.68;101820.97;5050012;28;45502;-68
2021/07/22 06:23:13;;;;;;;;;26.25;21.25;;;;;22.95;49.08;101815.66;5049896;28;45977;-65
2021/07/22 06:25:38;;;;;;;;;21.00;19.75;;;;;23.00;48.78;101823.31;5047845;28;45403;-65
2021/07/22 06:28:04;;;;;;;;;23.00;20.75;;;;;23.03;48.86;101825.81;5050757;28;45466;-66
2021/07/22 06:30:31;;;;;;;;;26.50;21.00;;;;;23.02;48.91;101819.63;5046813;28;45169;-65
2021/07/22 06:32:56;;;;;;;;;23.75;21.00;;;;;23.05;48.82;101814.16;5048530;28;46889;-70
2021/07/22 06:35:22;;;;;;;;;27.25;22.50;;;;;23.12;48.89;101811.97;5056329;28;46613;-64
2021/07/22 06:37:49;;;;;;;;;23.75;23.25;;;;;23.15;48.42;101811.75;5060087;28;45526;-66
2021/07/22 06:40:15;;;;;;;;;27.25;24.75;;;;;23.25;48.53;101817.34;5059093;28;45440;-70
2021/07/22 06:42:41;;;;;;;;;33.25;23.75;;;;;23.30;48.39;101816.09;5059544;28;45335;-67
2021/07/22 06:45:08;;;;;;;;;26.00;19.75;;;;;23.35;48.61;101818.44;5059158;28;45256;-66
2021/07/22 06:47:40;;;;;;;;;27.25;21.75;;;;;23.37;48.32;101806.78;5058336;28;45327;-68
2021/07/22 06:50:07;;;;;;;;;27.50;23.50;;;;;23.47;48.60;101822.13;5058344;28;45379;-67
2021/07/22 06:52:36;;;;;;;;;25.00;20.25;;;;;23.54;48.13;101813.66;5059487;28;46219;-66
2021/07/22 06:55:01;;;;;;;;;26.25;24.25;;;;;23.62;48.10;101810.53;5058888;28;45407;-67
2021/07/22 06:57:26;;;;;;;;;23.00;20.75;;;;;23.68;47.61;101812.81;5059128;28;45342;-68
2021/07/22 06:59:52;;;;;;;;;28.00;21.50;;;;;23.77;48.07;101812.19;5054922;28;45470;-65
2021/07/22 07:02:17;;;;;;;;;25.25;23.50;;;;;23.87;47.53;101807.16;5039340;28;50730;-66
2021/07/22 07:04:42;;;;;;;;;27.75;22.00;;;;;23.93;47.69;101815.53;5035625;28;45519;-65
2021/07/22 07:07:08;;;;;;;;;29.75;24.00;;;;;24.00;47.00;101809.81;5059737;28;45402;-64
2021/07/22 07:09:33;;;;;;;;;30.25;26.75;;;;;24.09;46.91;101814.53;5058687;28;45482;-64
2021/07/22 07:11:58;;;;;;;;;27.50;22.50;;;;;24.19;47.10;101820.91;5059089;28;45288;-64
2021/07/22 07:14:24;;;;;;;;;27.50;23.50;;;;;24.26;46.78;101819.56;5055994;28;45979;-66
2021/07/22 07:16:49;;;;;;;;;27.75;22.25;;;;;24.32;46.38;101813.84;5059422;28;45929;-64
2021/07/22 07:19:14;;;;;;;;;27.00;22.00;;;;;24.40;46.01;101819.47;5058409;28;45272;-61
2021/07/22 07:21:40;;;;;;;;;24.75;22.50;;;;;24.54;45.31;101816.72;5058874;28;45440;-63
2021/07/22 07:24:06;;;;;;;;;23.25;21.50;;;;;24.56;45.85;101816.63;5056968;28;45445;-62
2021/07/22 07:26:32;;;;;;;;;24.00;23.25;;;;;24.61;45.20;101821.63;5059498;28;45387;-60
2021/07/22 07:28:57;;;;;;;;;25.00;22.00;;;;;24.64;45.15;101818.78;5058499;28;45439;-63
2021/07/22 07:31:23;;;;;;;;;34.00;24.00;;;;;24.68;44.68;101818.44;5053662;28;45370;-64
2021/07/22 07:33:50;;;;;;;;;26.00;22.75;;;;;24.79;45.10;101815.00;5058120;28;45462;-63
2021/07/22 07:36:15;;;;;;;;;26.25;22.50;;;;;24.91;43.85;101815.97;5055875;28;45342;-63
2021/07/22 07:38:40;;;;;;;;;25.75;21.25;;;;;24.97;43.52;101816.38;5040324;28;45585;-63
2021/07/22 07:41:06;;;;;;;;;22.00;19.75;;;;;25.04;43.50;101815.03;5047723;28;46286;-63
2021/07/22 07:43:31;;;;;;;;;22.00;19.00;;;;;25.14;42.40;101810.75;5058297;28;45371;-65
2021/07/22 07:45:57;;;;;;;;;23.75;19.25;;;;;25.24;42.10;101828.72;5057589;28;45373;-65
2021/07/22 07:48:22;;;;;;;;;20.00;18.75;;;;;25.30;42.34;101818.47;5055168;28;45525;-64
2021/07/22 07:50:48;;;;;;;;;26.00;19.25;;;;;25.41;42.00;101823.00;5047356;28;46221;-69
2021/07/22 07:53:18;;;;;;;;;24.50;21.50;;;;;25.46;41.13;101826.19;5055906;28;45463;-69
2021/07/22 07:55:45;;;;;;;;;28.25;20.00;;;;;25.50;41.14;101822.34;5047853;28;45241;-68
2021/07/22 07:58:13;;;;;;;;;25.00;22.00;;;;;25.56;41.12;101819.22;5057773;28;45644;-66
2021/07/22 08:00:38;;;;;;;;;24.00;20.00;;;;;25.65;40.88;101810.59;5049045;28;45358;-69
2021/07/22 08:03:15;;;;;;;;;22.25;19.75;;;;;25.78;41.15;101806.06;5039491;28;45399;-69
2021/07/22 08:05:40;;;;;;;;;24.50;20.50;;;;;25.87;40.61;101815.19;5058801;28;45234;-68
2021/07/22 08:08:06;;;;;;;;;23.50;20.50;;;;;25.93;39.41;101814.72;5058368;28;45560;-71
2021/07/22 08:10:31;;;;;;;;;23.00;21.75;;;;;25.97;39.17;101807.34;5059361;28;46294;-66
2021/07/22 08:12:56;;;;;;;;;24.25;20.50;;;;;26.02;39.85;101805.16;5061792;28;45280;-68
2021/07/22 08:15:22;;;;;;;;;23.75;21.00;;;;;26.17;39.87;101812.00;5062412;28;45375;-67
2021/07/22 08:17:47;;;;;;;;;24.00;19.00;;;;;26.23;39.41;101803.56;5061533;28;45288;-62
2021/07/22 08:20:13;;;;;;;;;22.50;19.50;;;;;26.29;37.61;101805.75;5061921;28;45391;-64
2021/07/22 08:22:39;;;;;;;;;23.50;17.00;;;;;26.38;39.05;101806.88;5061584;28;45170;-66
2021/07/22 08:25:05;;;;;;;;;22.75;18.00;;;;;26.36;38.22;101812.34;5062065;27;45217;-64
2021/07/22 08:27:32;;;;;;;;;19.75;17.00;;;;;26.38;38.26;101807.72;5059665;28;45538;-67
2021/07/22 08:29:58;;;;;;;;;18.00;14.00;;;;;26.44;38.21;101813.56;5061840;28;46216;-63
2021/07/22 08:32:24;;;;;;;;;23.75;17.50;;;;;26.52;38.04;101814.66;5061410;28;45536;-62
2021/07/22 08:34:50;;;;;;;;;21.75;19.25;;;;;26.57;38.21;101815.16;5061437;28;45587;-65
2021/07/22 08:37:16;;;;;;;;;25.25;21.00;;;;;26.61;38.66;101815.75;5058195;28;45621;-65
2021/07/22 08:39:43;;;;;;;;;24.00;18.00;;;;;26.59;38.02;101813.22;5061131;28;46557;-62
2021/07/22 08:42:11;;;;;;;;;30.75;21.75;;;;;26.57;37.96;101806.31;5059888;27;45320;-70
2021/07/22 08:44:38;;;;;;;;;25.75;22.00;;;;;26.56;37.77;101808.13;5061041;28;45306;-62
2021/07/22 08:47:08;;;;;;;;;25.75;21.75;;;;;26.60;39.20;101814.06;5061277;28;45316;-52
2021/07/22 08:49:34;;;;;;;;;20.00;19.00;;;;;26.66;38.71;101813.59;5051792;28;45321;-52
2021/07/22 08:52:01;;;;;;;;;22.75;20.00;;;;;26.71;37.49;101814.09;5059735;28;45400;-52
2021/07/22 08:54:27;;;;;;;;;21.50;20.25;;;;;26.72;37.75;101809.59;5061472;28;45352;-53
2021/07/22 08:56:55;;;;;;;;;19.75;18.00;;;;;26.70;36.83;101809.72;5060966;28;45256;-53
2021/07/22 08:59:23;;;;;;;;;26.75;22.00;;;;;26.73;38.12;101812.13;5061444;28;46304;-55
2021/07/22 09:01:51;;;;;;;;;28.25;24.50;;;;;26.77;37.52;101818.06;5041162;28;45298;-53
2021/07/22 09:04:16;;;;;;;;;27.75;22.50;;;;;26.83;37.68;101821.13;5051834;28;45388;-55
2021/07/22 09:06:41;;;;;;;;;23.25;21.00;;;;;26.79;36.99;101808.13;5060981;28;45322;-61
2021/07/22 09:09:11;;;;;;;;;16.25;12.75;;;;;26.82;37.15;101816.72;5061268;28;46477;-61
2021/07/22 09:11:52;;;;;;;;;27.50;21.25;;;;;26.71;37.14;101826.56;5060558;28;45520;-61
2021/07/22 09:14:18;;;;;;;;;21.50;19.75;;;;;26.67;37.57;101823.28;5061081;28;45454;-60
2021/07/22 09:16:43;;;;;;;;;17.25;17.25;;;;;26.68;37.91;101809.84;5061260;28;45302;-60
2021/07/22 09:19:34;;;;;;;;;22.00;19.25;;;;;26.74;37.88;101819.16;5060123;28;46405;-62
2021/07/22 09:22:00;;;;;;;;;22.25;20.50;;;;;26.77;37.29;101824.25;5032534;28;45644;-60
2021/07/22 09:24:26;;;;;;;;;20.75;18.00;;;;;26.76;37.73;101819.91;5059570;28;45281;-59
2021/07/22 09:26:51;;;;;;;;;20.75;18.00;;;;;26.77;37.50;101812.75;5060284;27;45449;-62
2021/07/22 09:29:17;;;;;;;;;24.00;18.25;;;;;26.79;37.78;101808.13;5060201;28;46957;-61
2021/07/22 09:31:43;;;;;;;;;21.75;20.50;;;;;26.83;37.81;101799.78;5060813;28;45592;-64
2021/07/22 09:34:23;;;;;;;;;22.00;19.25;;;;;26.90;37.74;101808.13;5060058;28;45332;-64
2021/07/22 09:36:48;;;;;;;;;16.50;15.50;;;;;26.91;37.63;101816.03;5057267;28;45216;-63
2021/07/22 09:39:30;;;;;;;;;22.00;20.00;;;;;26.97;37.76;101812.84;5060224;28;46534;-62
2021/07/22 09:41:59;;;;;;;;;24.00;18.00;;;;;27.06;37.34;101815.81;5060241;28;45854;-63
2021/07/22 09:44:38;;;;;;;;;25.50;21.75;;;;;27.15;37.34;101815.06;5060784;28;45334;-59
2021/07/22 09:47:08;;;;;;;;;19.75;19.75;;;;;27.20;36.93;101815.53;5059808;28;45465;-59
2021/07/22 09:49:41;;;;;;;;;23.50;20.75;;;;;27.23;37.02;101812.59;5060038;28;45688;-60
2021/07/22 09:52:15;;;;;;;;;24.00;20.25;;;;;27.33;37.34;101805.56;5059336;28;45619;-60
2021/07/22 09:54:41;;;;;;;;;19.50;18.25;;;;;27.37;36.24;101801.66;5041786;28;45335;-60
2021/07/22 09:57:20;;;;;;;;;21.00;18.25;;;;;27.51;36.85;101803.22;5060193;28;45327;-62
2021/07/22 09:59:47;;;;;;;;;23.50;18.50;;;;;27.67;36.55;101789.50;5056991;28;47462;-64
2021/07/22 10:02:30;;;;;;;;;19.00;19.00;;;;;27.75;36.52;101792.34;5040139;28;45289;-64
2021/07/22 10:05:04;;;;;;;;;23.25;19.50;;;;;27.82;36.46;101793.53;5045602;28;45403;-62
2021/07/22 10:07:30;;;;;;;;;22.75;20.00;;;;;27.81;36.37;101781.16;5059826;28;45264;-62
2021/07/22 10:09:58;;;;;;;;;22.25;21.50;;;;;27.72;36.22;101781.94;5054218;28;45413;-60
2021/07/22 10:12:25;;;;;;;;;20.50;17.75;;;;;27.69;36.01;101787.53;5051307;28;45371;-63
2021/07/22 10:15:01;;;;;;;;;21.25;17.50;;;;;27.83;36.31;101781.88;5059465;28;45528;-62
2021/07/22 10:17:32;;;;;;;;;18.50;17.75;;;;;27.88;36.27;101777.84;5059500;28;45396;-63
2021/07/22 10:20:01;;;;;;;;;19.50;18.25;;;;;27.99;36.29;101784.09;5059268;28;45399;-61
2021/07/22 10:22:28;;;;;;;;;20.75;19.00;;;;;28.00;35.91;101775.09;5058030;28;45202;-63
2021/07/22 10:24:54;;;;;;;;;19.50;18.00;;;;;28.05;35.85;101779.09;5060120;28;45524;-64
2021/07/22 10:27:20;;;;;;;;;21.50;18.00;;;;;28.13;35.33;101779.28;5059116;28;45224;-62
2021/07/22 10:29:46;;;;;;;;;18.00;16.75;;;;;28.24;35.35;101767.69;5059157;28;45431;-65
2021/07/22 10:32:32;;;;;;;;;20.25;17.50;;;;;28.39;34.94;101771.72;5059091;28;45281;-63
2021/07/22 10:34:59;;;;;;;;;21.00;18.00;;;;;28.44;35.31;101769.53;5057782;28;45276;-61
2021/07/22 10:37:24;;;;;;;;;19.00;14.25;;;;;28.47;35.21;101763.91;5056527;28;45343;-73
2021/07/22 10:40:11;;;;;;;;;12.75;12.25;;;;;28.58;34.24;101752.25;5047489;28;46386;-69
2021/07/22 10:42:51;;;;;;;;;19.75;15.75;;;;;28.64;34.30;101756.25;5047591;28;45623;-65
2021/07/22 10:45:19;;;;;;;;;15.75;15.25;;;;;28.72;33.89;101756.41;5055923;28;45382;-68
2021/07/22 10:48:03;;;;;;;;;17.50;15.75;;;;;28.69;34.48;101760.19;5059131;28;45516;-70
2021/07/22 10:50:38;;;;;;;;;17.50;14.50;;;;;28.69;34.26;101754.00;5058860;28;45420;-66
2021/07/22 10:53:04;;;;;;;;;18.00;17.00;;;;;28.71;33.80;101752.88;5058955;28;45688;-68
2021/07/22 10:55:45;;;;;;;;;17.00;16.75;;;;;28.68;33.72;101755.81;5059583;28;45351;-69
2021/07/22 10:58:23;;;;;;;;;8.75;6.75;;;;;28.67;33.86;101759.47;5058701;28;45413;-63
2021/07/22 11:00:48;;;;;;;;;21.75;19.00;;;;;28.66;34.35;101752.44;5047869;28;45427;-69
2021/07/22 11:03:36;;;;;;;;;13.75;13.50;;;;;28.58;33.44;101744.22;5042158;28;45299;-66
2021/07/22 11:06:04;;;;;;;;;22.00;17.75;;;;;28.59;33.68;101740.56;5058673;28;45313;-67
2021/07/22 11:08:31;;;;;;;;;18.75;16.25;;;;;28.66;33.64;101747.09;5056392;28;45195;-64